createdAt,value
2022-10-29T00:00:07.827Z,94.97
2022-10-29T00:02:35.391Z,95.41
2022-10-29T00:05:02.913Z,95.14
2022-10-29T00:07:30.387Z,94.87
2022-10-29T00:09:57.856Z,94.85
2022-10-29T00:12:26.653Z,94.79
2022-10-29T00:14:54.120Z,94.33
2022-10-29T00:17:21.612Z,94.97
2022-10-29T00:19:49.584Z,94.77
2022-10-29T00:22:17.050Z,95.13
2022-10-29T00:24:44.534Z,94.94
2022-10-29T00:27:12.068Z,94.84
2022-10-29T00:29:40.861Z,94.76
2022-10-29T00:32:09.870Z,94.80
2022-10-29T00:34:37.836Z,95.72
2022-10-29T00:37:05.900Z,95.25
2022-10-29T00:39:34.335Z,95.26
2022-10-29T00:42:01.863Z,94.44
2022-10-29T00:44:33.523Z,95.64
2022-10-29T00:47:13.785Z,95.02
2022-10-29T00:49:43.272Z,94.45
2022-10-29T00:52:11.552Z,95.60
2022-10-29T00:54:42.503Z,98.42
2022-10-29T00:57:13.568Z,97.59
2022-10-29T00:59:42.400Z,96.42
2022-10-29T01:02:11.994Z,95.50
2022-10-29T01:04:40.556Z,94.73
2022-10-29T01:07:08.032Z,94.08
2022-10-29T01:09:35.651Z,94.54
2022-10-29T01:12:19.656Z,95.31
2022-10-29T01:14:56.855Z,94.62
2022-10-29T01:17:32.119Z,94.37
2022-10-29T01:20:33.160Z,93.92
2022-10-29T01:23:12.662Z,95.53
2022-10-29T01:26:06.088Z,96.19
2022-10-29T01:28:47.346Z,95.07
2022-10-29T01:31:25.561Z,94.90
2022-10-29T01:34:00.294Z,94.40
2022-10-29T01:36:33.765Z,94.29
2022-10-29T01:39:06.049Z,94.07
2022-10-29T01:41:40.964Z,93.68
2022-10-29T01:44:18.129Z,93.57
2022-10-29T01:46:53.722Z,92.28
2022-10-29T01:49:27.006Z,93.62
2022-10-29T01:51:56.820Z,94.18
2022-10-29T01:54:24.670Z,93.69
2022-10-29T01:56:56.766Z,93.75
2022-10-29T01:59:36.122Z,92.98
2022-10-29T02:02:23.600Z,93.11
2022-10-29T02:05:02.640Z,92.87
2022-10-29T02:07:45.691Z,93.04
2022-10-29T02:10:20.503Z,93.50
2022-10-29T02:12:50.523Z,93.50
2022-10-29T02:15:22.565Z,93.09
2022-10-29T02:17:51.652Z,92.50
2022-10-29T02:20:19.828Z,93.43
2022-10-29T02:22:47.295Z,92.33
2022-10-29T02:25:14.814Z,91.78
2022-10-29T02:27:42.437Z,92.28
2022-10-29T02:30:10.786Z,93.63
2022-10-29T02:32:38.288Z,92.22
2022-10-29T02:35:08.010Z,94.98
2022-10-29T02:37:35.768Z,96.23
2022-10-29T02:40:03.580Z,94.95
2022-10-29T02:42:31.062Z,93.43
2022-10-29T02:44:58.616Z,92.37
2022-10-29T02:47:26.252Z,92.24
2022-10-29T02:49:53.717Z,92.55
2022-10-29T02:52:22.606Z,92.88
2022-10-29T02:54:50.049Z,93.21
2022-10-29T02:57:17.578Z,92.53
2022-10-29T02:59:45.094Z,92.96
2022-10-29T03:02:12.647Z,92.78
2022-10-29T03:04:41.237Z,92.53
2022-10-29T03:07:08.704Z,91.97
2022-10-29T03:09:37.508Z,92.72
2022-10-29T03:12:05.133Z,92.13
2022-10-29T03:14:32.589Z,92.39
2022-10-29T03:17:00.060Z,91.14
2022-10-29T03:19:27.533Z,91.89
2022-10-29T03:21:55.025Z,92.58
2022-10-29T03:24:22.470Z,92.85
2022-10-29T03:26:51.282Z,92.36
2022-10-29T03:29:18.754Z,92.63
2022-10-29T03:31:46.226Z,92.21
2022-10-29T03:34:13.686Z,92.60
2022-10-29T03:36:41.161Z,92.27
2022-10-29T03:39:08.881Z,91.93
2022-10-29T03:41:36.333Z,91.79
2022-10-29T03:44:05.202Z,91.67
2022-10-29T03:46:32.896Z,91.14
2022-10-29T03:49:00.379Z,92.29
2022-10-29T03:51:27.956Z,92.06
2022-10-29T03:53:55.421Z,91.09
2022-10-29T03:56:22.933Z,91.73
2022-10-29T03:58:50.387Z,91.14
2022-10-29T04:01:19.303Z,91.23
2022-10-29T04:03:46.813Z,91.19
2022-10-29T04:06:16.292Z,91.26
2022-10-29T04:08:43.988Z,90.85
2022-10-29T04:11:12.916Z,91.53
2022-10-29T04:13:40.433Z,90.53
2022-10-29T04:16:08.524Z,90.97
2022-10-29T04:18:37.361Z,90.32
2022-10-29T04:29:30.301Z,91.78
2022-10-29T04:31:57.737Z,91.07
2022-10-29T04:34:26.536Z,90.90
2022-10-29T04:36:54.338Z,90.86
2022-10-29T04:39:23.439Z,90.38
2022-10-29T04:41:51.156Z,89.96
2022-10-29T04:44:19.895Z,89.57
2022-10-29T04:46:47.348Z,90.41
2022-10-29T04:49:14.838Z,90.69
2022-10-29T04:51:43.832Z,90.36
2022-10-29T04:54:11.451Z,90.83
2022-10-29T04:56:38.924Z,91.62
2022-10-29T04:59:06.408Z,90.60
2022-10-29T05:04:06.440Z,91.35
2022-10-29T05:06:33.911Z,90.96
2022-10-29T05:09:02.940Z,91.07
2022-10-29T05:11:30.461Z,91.46
2022-10-29T05:13:57.940Z,91.58
2022-10-29T05:16:25.400Z,92.19
2022-10-29T05:18:52.844Z,91.73
2022-10-29T05:21:20.327Z,92.30
2022-10-29T05:23:47.804Z,92.09
2022-10-29T05:26:16.609Z,92.09
2022-10-29T05:28:44.091Z,92.59
2022-10-29T05:31:11.575Z,92.14
2022-10-29T05:33:39.069Z,92.53
2022-10-29T05:36:06.945Z,92.66
2022-10-29T05:38:34.411Z,92.41
2022-10-29T05:41:02.163Z,92.41
2022-10-29T05:43:30.952Z,92.66
2022-10-29T05:45:58.428Z,92.39
2022-10-29T05:48:25.885Z,92.77
2022-10-29T05:50:53.360Z,92.77
2022-10-29T05:53:20.848Z,93.01
2022-10-29T05:55:48.324Z,92.68
2022-10-29T05:58:15.809Z,92.79
2022-10-29T06:00:46.336Z,92.98
2022-10-29T06:03:15.799Z,93.30
2022-10-29T06:05:43.440Z,93.17
2022-10-29T06:08:11.213Z,93.32
2022-10-29T06:10:39.241Z,93.28
2022-10-29T06:13:11.846Z,92.89
2022-10-29T06:15:39.336Z,93.38
2022-10-29T06:18:08.208Z,93.76
2022-10-29T06:20:36.663Z,93.80
2022-10-29T06:23:04.740Z,94.33
2022-10-29T06:25:32.476Z,97.87
2022-10-29T06:28:01.718Z,95.32
2022-10-29T06:30:29.805Z,93.84
2022-10-29T06:32:57.781Z,93.88
2022-10-29T06:35:27.550Z,93.40
2022-10-29T06:37:55.643Z,93.51
2022-10-29T06:40:23.827Z,93.82
2022-10-29T06:42:51.379Z,93.87
2022-10-29T06:45:19.064Z,94.04
2022-10-29T06:47:46.732Z,93.56
2022-10-29T06:50:14.703Z,94.17
2022-10-29T06:52:43.879Z,93.88
2022-10-29T06:55:11.352Z,93.80
2022-10-29T06:57:38.815Z,94.90
2022-10-29T07:00:08.730Z,94.78
2022-10-29T07:02:36.589Z,94.82
2022-10-29T07:05:04.313Z,94.39
2022-10-29T07:07:31.808Z,96.11
2022-10-29T07:10:00.622Z,94.85
2022-10-29T07:12:28.100Z,98.55
2022-10-29T07:14:55.533Z,99.71
2022-10-29T07:17:22.999Z,97.82
2022-10-29T07:19:50.461Z,98.84
2022-10-29T07:22:17.939Z,97.68
2022-10-29T07:24:45.376Z,97.51
2022-10-29T07:27:14.304Z,97.58
2022-10-29T07:29:41.828Z,100.00
2022-10-29T07:32:09.317Z,100.00
2022-10-29T07:34:36.847Z,100.00
2022-10-29T07:37:04.539Z,100.00
2022-10-29T07:42:05.479Z,100.00
2022-10-29T07:44:34.300Z,98.93
2022-10-29T07:47:03.017Z,100.00
2022-10-29T07:49:30.463Z,100.00
2022-10-29T07:51:58.017Z,100.00
2022-10-29T07:54:25.635Z,100.00
2022-10-29T07:56:53.205Z,100.00
2022-10-29T07:59:21.136Z,100.00
2022-10-29T08:01:50.097Z,100.00
2022-10-29T08:04:17.731Z,100.00
2022-10-29T08:06:45.350Z,100.00
2022-10-29T08:09:13.104Z,100.00
2022-10-29T08:11:40.635Z,100.00
2022-10-29T08:14:08.120Z,100.00
2022-10-29T08:16:35.675Z,100.00
2022-10-29T08:19:04.471Z,100.00
2022-10-29T08:21:31.967Z,100.00
2022-10-29T08:23:59.442Z,100.00
2022-10-29T08:26:26.955Z,100.00
2022-10-29T08:28:54.412Z,100.00
2022-10-29T08:31:21.905Z,100.00
2022-10-29T08:33:49.538Z,100.00
2022-10-29T08:36:18.331Z,100.00
2022-10-29T08:38:47.622Z,100.00
2022-10-29T08:41:34.522Z,100.00
2022-10-29T08:44:34.116Z,100.00
2022-10-29T08:47:14.547Z,100.00
2022-10-29T08:49:47.133Z,100.00
2022-10-29T08:52:20.818Z,100.00
2022-10-29T08:54:54.314Z,100.00
2022-10-29T08:57:26.193Z,100.00
2022-10-29T09:00:02.938Z,100.00
2022-10-29T09:02:31.110Z,100.00
2022-10-29T09:04:59.505Z,100.00
2022-10-29T09:07:47.261Z,100.00
2022-10-29T09:10:26.325Z,100.00
2022-10-29T09:13:11.289Z,100.00
2022-10-29T09:15:57.683Z,100.00
2022-10-29T09:18:36.295Z,100.00
2022-10-29T09:21:12.960Z,100.00
2022-10-29T09:23:59.436Z,100.00
2022-10-29T09:26:32.228Z,100.00
2022-10-29T09:29:21.074Z,100.00
2022-10-29T09:31:51.946Z,100.00
2022-10-29T09:34:30.754Z,100.00
2022-10-29T09:36:59.172Z,100.00
2022-10-29T09:39:33.897Z,100.00
2022-10-29T09:42:03.487Z,100.00
2022-10-29T09:44:38.667Z,100.00
2022-10-29T09:47:15.877Z,98.78
2022-10-29T09:49:57.387Z,100.00
2022-10-29T09:52:30.072Z,98.91
2022-10-29T09:55:01.808Z,98.42
2022-10-29T09:57:35.164Z,100.00
2022-10-29T10:00:05.897Z,100.00
2022-10-29T10:02:37.591Z,100.00
2022-10-29T10:05:07.995Z,100.00
2022-10-29T10:07:35.503Z,98.72
2022-10-29T10:10:06.484Z,100.00
2022-10-29T10:12:46.542Z,100.00
2022-10-29T10:15:24.915Z,100.00
2022-10-29T10:17:59.053Z,96.06
2022-10-29T10:20:34.142Z,93.34
2022-10-29T10:23:02.554Z,94.52
2022-10-29T10:25:37.662Z,97.71
2022-10-29T10:28:16.721Z,95.76
2022-10-29T10:30:44.697Z,93.09
2022-10-29T10:33:13.677Z,91.82
2022-10-29T10:35:41.403Z,93.45
2022-10-29T10:38:11.747Z,91.39
2022-10-29T10:40:43.219Z,90.42
2022-10-29T10:43:20.156Z,91.47
2022-10-29T10:45:54.348Z,87.96
2022-10-29T10:48:25.917Z,90.46
2022-10-29T10:51:11.480Z,91.03
2022-10-29T10:53:40.648Z,90.42
2022-10-29T10:56:17.441Z,93.23
2022-10-29T10:58:50.780Z,92.13
2022-10-29T11:01:24.588Z,87.55
2022-10-29T11:04:01.661Z,89.20
2022-10-29T11:06:33.253Z,87.65
2022-10-29T11:09:07.742Z,88.49
2022-10-29T11:11:40.426Z,88.12
2022-10-29T11:14:14.741Z,87.24
2022-10-29T11:16:46.324Z,88.96
2022-10-29T11:19:20.430Z,84.97
2022-10-29T11:21:58.991Z,84.75
2022-10-29T11:24:34.523Z,86.38
2022-10-29T11:27:11.360Z,89.03
2022-10-29T11:29:49.073Z,85.75
2022-10-29T11:32:21.651Z,87.81
2022-10-29T11:34:56.424Z,93.29
2022-10-29T11:37:32.472Z,89.90
2022-10-29T11:40:04.172Z,88.94
2022-10-29T11:42:33.019Z,91.36
2022-10-29T11:45:00.924Z,87.16
2022-10-29T11:47:41.176Z,88.16
2022-10-29T11:50:20.049Z,90.33
2022-10-29T11:52:55.122Z,84.80
2022-10-29T11:55:31.371Z,88.01
2022-10-29T11:58:04.916Z,83.02
2022-10-29T12:00:45.230Z,83.08
2022-10-29T12:03:32.830Z,82.96
2022-10-29T12:06:12.189Z,86.61
2022-10-29T12:08:57.231Z,85.56
2022-10-29T12:11:32.627Z,80.40
2022-10-29T12:14:12.102Z,84.51
2022-10-29T12:16:51.087Z,85.88
2022-10-29T12:19:30.535Z,88.51
2022-10-29T12:22:05.102Z,82.87
2022-10-29T12:24:47.212Z,81.51
2022-10-29T12:27:24.192Z,79.63
2022-10-29T12:29:59.746Z,82.12
2022-10-29T12:32:34.308Z,80.23
2022-10-29T12:35:12.447Z,83.76
2022-10-29T12:37:45.256Z,82.98
2022-10-29T12:40:19.152Z,84.18
2022-10-29T12:42:48.186Z,82.28
2022-10-29T12:45:39.874Z,82.97
2022-10-29T12:48:23.932Z,83.47
2022-10-29T12:50:59.065Z,85.50
2022-10-29T12:53:31.540Z,83.92
2022-10-29T12:55:59.568Z,84.32
2022-10-29T12:58:48.587Z,82.33
2022-10-29T13:04:34.807Z,82.58
2022-10-29T13:07:22.595Z,81.01
2022-10-29T13:09:50.358Z,84.18
2022-10-29T13:12:51.206Z,81.90
2022-10-29T13:15:22.784Z,81.62
2022-10-29T13:17:56.073Z,82.42
2022-10-29T13:20:27.851Z,84.61
2022-10-29T13:22:57.470Z,83.33
2022-10-29T13:25:51.429Z,80.69
2022-10-29T13:29:01.600Z,83.16
2022-10-29T13:31:49.603Z,82.03
2022-10-29T13:34:56.821Z,82.72
2022-10-29T13:38:10.416Z,84.78
2022-10-29T13:41:08.183Z,83.83
2022-10-29T13:43:35.982Z,82.68
2022-10-29T13:46:26.965Z,84.62
2022-10-29T13:48:58.538Z,85.59
2022-10-29T13:51:36.084Z,85.14
2022-10-29T13:54:10.867Z,83.23
2022-10-29T13:56:45.952Z,85.21
2022-10-29T13:59:21.961Z,82.97
2022-10-29T14:02:00.249Z,86.78
2022-10-29T14:04:33.849Z,84.18
2022-10-29T14:07:07.337Z,81.17
2022-10-29T14:09:41.799Z,82.13
2022-10-29T14:12:11.375Z,83.13
2022-10-29T14:14:49.099Z,85.86
2022-10-29T14:17:18.703Z,85.90
2022-10-29T14:19:48.283Z,87.30
2022-10-29T14:22:33.308Z,90.08
2022-10-29T14:25:01.995Z,90.38
2022-10-29T14:27:30.063Z,90.74
2022-10-29T14:30:14.276Z,91.73
2022-10-29T14:32:42.050Z,90.20
2022-10-29T14:35:16.123Z,88.76
2022-10-29T14:37:48.894Z,91.39
2022-10-29T14:40:21.513Z,90.17
2022-10-29T14:42:53.693Z,93.10
2022-10-29T14:45:24.603Z,94.74
2022-10-29T14:47:54.552Z,93.60
2022-10-29T14:50:24.394Z,92.47
2022-10-29T14:52:57.463Z,89.52
2022-10-29T14:55:28.120Z,92.25
2022-10-29T14:58:03.411Z,91.35
2022-10-29T15:00:35.668Z,90.87
2022-10-29T15:03:04.233Z,95.33
2022-10-29T15:05:33.716Z,97.88
2022-10-29T15:08:07.475Z,99.22
2022-10-29T15:10:46.866Z,100.00
2022-10-29T15:13:30.437Z,100.00
2022-10-29T15:16:01.735Z,99.41
2022-10-29T15:18:30.598Z,100.00
2022-10-29T15:20:58.423Z,100.00
2022-10-29T15:23:29.291Z,100.00
2022-10-29T15:26:03.166Z,100.00
2022-10-29T15:28:37.745Z,100.00
2022-10-29T15:31:05.980Z,100.00
2022-10-29T15:33:33.689Z,99.51
2022-10-29T15:36:03.917Z,100.00
2022-10-29T15:39:05.089Z,100.00
2022-10-29T15:41:38.505Z,100.00
2022-10-29T15:44:33.757Z,100.00
2022-10-29T15:47:03.111Z,100.00
2022-10-29T15:49:32.660Z,100.00
2022-10-29T15:52:01.485Z,100.00
2022-10-29T15:54:29.601Z,100.00
2022-10-29T15:56:59.054Z,100.00
2022-10-29T15:59:28.030Z,100.00
2022-10-29T16:01:55.634Z,100.00
2022-10-29T16:04:23.161Z,100.00
2022-10-29T16:06:50.685Z,100.00
2022-10-29T16:09:21.674Z,100.00
2022-10-29T16:11:50.596Z,100.00
2022-10-29T16:14:19.410Z,100.00
2022-10-29T16:16:47.458Z,100.00
2022-10-29T16:19:14.897Z,100.00
2022-10-29T16:21:42.417Z,100.00
2022-10-29T16:24:14.284Z,100.00
2022-10-29T16:26:41.763Z,100.00
2022-10-29T16:29:10.306Z,100.00
2022-10-29T16:31:39.153Z,100.00
2022-10-29T16:34:07.546Z,100.00
2022-10-29T16:36:35.055Z,100.00
2022-10-29T16:39:02.511Z,100.00
2022-10-29T16:41:30.536Z,100.00
2022-10-29T16:43:58.014Z,100.00
2022-10-29T16:46:25.492Z,100.00
2022-10-29T16:48:54.326Z,100.00
2022-10-29T16:51:21.804Z,100.00
2022-10-29T16:53:49.260Z,100.00
2022-10-29T16:56:16.719Z,100.00
2022-10-29T16:58:44.185Z,100.00
2022-10-29T17:01:11.721Z,100.00
2022-10-29T17:03:39.902Z,100.00
2022-10-29T17:06:11.233Z,100.00
2022-10-29T17:08:39.260Z,100.00
2022-10-29T17:11:09.785Z,100.00
2022-10-29T17:13:37.815Z,100.00
2022-10-29T17:16:08.897Z,100.00
2022-10-29T17:18:36.424Z,100.00
2022-10-29T17:21:04.106Z,100.00
2022-10-29T17:23:33.658Z,100.00
2022-10-29T17:26:01.513Z,100.00
2022-10-29T17:28:29.453Z,100.00
2022-10-29T17:30:56.931Z,100.00
2022-10-29T17:33:24.438Z,100.00
2022-10-29T17:36:01.868Z,100.00
2022-10-29T17:38:29.358Z,100.00
2022-10-29T17:40:58.193Z,100.00
2022-10-29T17:43:25.674Z,100.00
2022-10-29T17:45:53.157Z,100.00
2022-10-29T17:48:24.046Z,100.00
2022-10-29T17:50:53.573Z,100.00
2022-10-29T17:53:21.036Z,100.00
2022-10-29T17:55:48.760Z,100.00
2022-10-29T17:58:18.708Z,100.00
2022-10-29T18:00:48.142Z,100.00
2022-10-29T18:03:15.933Z,100.00
2022-10-29T18:05:43.445Z,99.88
2022-10-29T18:08:10.972Z,99.94
2022-10-29T18:10:38.467Z,100.00
2022-10-29T18:13:05.921Z,99.09
2022-10-29T18:15:34.865Z,98.19
2022-10-29T18:18:02.363Z,98.83
2022-10-29T18:20:29.889Z,99.18
2022-10-29T18:22:57.812Z,97.56
2022-10-29T18:25:25.478Z,97.75
2022-10-29T18:27:55.442Z,96.53
2022-10-29T18:30:23.719Z,98.41
2022-10-29T18:32:52.506Z,98.56
2022-10-29T18:35:20.033Z,97.99
2022-10-29T18:37:47.701Z,97.75
2022-10-29T18:40:15.301Z,97.62
2022-10-29T18:42:42.784Z,96.52
2022-10-29T18:45:11.586Z,97.78
2022-10-29T18:47:39.079Z,97.28
2022-10-29T18:50:08.881Z,98.08
2022-10-29T18:52:36.366Z,97.54
2022-10-29T18:55:04.094Z,97.05
2022-10-29T18:57:31.854Z,97.55
2022-10-29T18:59:59.362Z,97.51
2022-10-29T19:02:27.307Z,98.09
2022-10-29T19:04:54.842Z,98.70
2022-10-29T19:07:23.663Z,97.81
2022-10-29T19:09:51.146Z,97.10
2022-10-29T19:12:18.617Z,97.24
2022-10-29T19:14:46.130Z,96.97
2022-10-29T19:17:13.654Z,97.36
2022-10-29T19:19:41.138Z,97.42
2022-10-29T19:22:08.637Z,97.55
2022-10-29T19:24:37.432Z,97.14
2022-10-29T19:27:04.935Z,95.93
2022-10-29T19:29:32.401Z,97.26
2022-10-29T19:31:59.875Z,97.32
2022-10-29T19:34:27.424Z,95.78
2022-10-29T19:36:54.950Z,95.82
2022-10-29T19:39:22.430Z,96.24
2022-10-29T19:41:51.274Z,97.50
2022-10-29T19:44:18.933Z,98.55
2022-10-29T19:46:46.493Z,97.40
2022-10-29T19:49:13.974Z,96.85
2022-10-29T19:51:41.472Z,96.57
2022-10-29T19:54:09.161Z,95.27
2022-10-29T19:56:36.732Z,95.60
2022-10-29T19:59:06.449Z,95.16
2022-10-29T20:01:34.018Z,97.11
2022-10-29T20:04:01.646Z,95.19
2022-10-29T20:06:29.118Z,96.11
2022-10-29T20:08:56.631Z,95.80
2022-10-29T20:11:24.103Z,94.64
2022-10-29T20:13:52.077Z,95.19
2022-10-29T20:16:22.139Z,96.33
2022-10-29T20:18:50.198Z,95.55
2022-10-29T20:21:18.392Z,95.64
2022-10-29T20:23:46.155Z,95.35
2022-10-29T20:26:13.673Z,95.43
2022-10-29T20:28:41.210Z,93.95
2022-10-29T20:31:30.030Z,95.22
2022-10-29T20:33:59.989Z,93.96
2022-10-29T20:36:29.805Z,95.13
2022-10-29T20:38:57.598Z,96.09
2022-10-29T20:41:25.587Z,95.15
2022-10-29T20:43:54.295Z,95.03
2022-10-29T20:46:22.234Z,94.86
2022-10-29T20:48:51.168Z,94.29
2022-10-29T20:51:18.716Z,94.48
2022-10-29T20:53:46.229Z,94.80
2022-10-29T20:56:16.200Z,94.80
2022-10-29T20:58:44.280Z,94.30
2022-10-29T21:01:13.846Z,94.59
2022-10-29T21:03:41.962Z,94.57
2022-10-29T21:06:17.030Z,94.23
2022-10-29T21:08:45.578Z,94.62
2022-10-29T21:11:15.016Z,94.35
2022-10-29T21:13:42.769Z,93.85
2022-10-29T21:16:16.771Z,93.78
2022-10-29T21:18:45.941Z,93.25
2022-10-29T21:21:15.444Z,93.26
2022-10-29T21:23:43.101Z,93.66
2022-10-29T21:26:13.293Z,93.86
2022-10-29T21:28:40.896Z,94.39
2022-10-29T21:31:08.734Z,93.63
2022-10-29T21:33:36.676Z,95.13
2022-10-29T21:36:05.317Z,95.23
2022-10-29T21:38:34.612Z,95.87
2022-10-29T21:41:02.151Z,97.69
2022-10-29T21:43:29.673Z,98.21
2022-10-29T21:45:57.358Z,98.17
2022-10-29T21:48:26.305Z,97.85
2022-10-29T21:51:01.912Z,98.24
2022-10-29T21:53:29.964Z,99.58
2022-10-29T21:55:59.833Z,98.88
2022-10-29T21:58:28.024Z,96.39
2022-10-29T22:01:03.444Z,96.07
2022-10-29T22:03:31.922Z,97.93
2022-10-29T22:06:03.533Z,96.08
2022-10-29T22:08:31.113Z,98.01
2022-10-29T22:11:00.278Z,97.19
2022-10-29T22:13:28.227Z,96.66
2022-10-29T22:15:55.929Z,99.20
2022-10-29T22:18:23.924Z,99.97
2022-10-29T22:20:51.797Z,98.33
2022-10-29T22:23:19.272Z,97.21
2022-10-29T22:25:51.777Z,96.64
2022-10-29T22:28:20.607Z,98.54
2022-10-29T22:30:48.095Z,97.44
2022-10-29T22:33:15.601Z,96.15
2022-10-29T22:35:43.032Z,98.99
2022-10-29T22:38:10.498Z,98.56
2022-10-29T22:40:41.482Z,96.65
2022-10-29T22:43:08.945Z,96.78
2022-10-29T22:45:37.861Z,95.85
2022-10-29T22:48:05.815Z,96.00
2022-10-29T22:50:33.319Z,95.96
2022-10-29T22:53:00.878Z,96.79
2022-10-29T22:55:28.551Z,96.29
2022-10-29T22:57:57.435Z,96.33
2022-10-29T23:00:24.933Z,95.96
2022-10-29T23:02:53.728Z,96.54
2022-10-29T23:05:21.195Z,96.12
2022-10-29T23:07:48.659Z,95.94
2022-10-29T23:10:16.356Z,95.95
2022-10-29T23:12:43.820Z,95.90
2022-10-29T23:15:11.557Z,95.96
2022-10-29T23:17:39.047Z,96.15
2022-10-29T23:20:08.500Z,97.95
2022-10-29T23:22:35.976Z,97.16
2022-10-29T23:25:03.454Z,98.91
2022-10-29T23:27:30.940Z,98.20
2022-10-29T23:29:58.412Z,96.95
2022-10-29T23:32:25.919Z,97.91
2022-10-29T23:34:56.399Z,96.95
2022-10-29T23:37:25.232Z,98.07
2022-10-29T23:39:52.745Z,98.64
2022-10-29T23:42:20.224Z,98.56
2022-10-29T23:44:47.824Z,99.41
2022-10-29T23:47:15.298Z,97.49
2022-10-29T23:49:42.749Z,98.22
2022-10-29T23:52:10.228Z,100.00
2022-10-29T23:54:39.193Z,98.74
2022-10-29T23:57:06.762Z,100.00
2022-10-29T23:59:34.223Z,99.99
